Time;durP1;ratioP1;P1;durP2;ratioP2;P2;SDS_P1;SDS_P2;PMS_P1;PMS_P2;Temp;Humidity;BMP_temperature;BMP_pressure;BME280_temperature;BME280_humidity;BME280_pressure;Samples;Min_cycle;Max_cycle;Signal;HPM_P1;HPM_P2
2023/04/12 00:01:51;;;;;;;;;;;;;;;;;;5111724;28;1614;-41
2023/04/12 00:04:21;;;;;;;;;;;;;;;;;;5112010;28;1437;-40
2023/04/12 00:06:48;;;;;;;;;;;;;;;;;;5111987;28;1523;-45
2023/04/12 00:09:16;;;;;;;;;;;;;;;;;;5111831;28;2168;-41
2023/04/12 00:11:43;;;;;;;;;;;;;;;;;;5112002;28;2092;-40
2023/04/12 00:14:10;;;;;;;;;;;;;;;;;;5112090;28;1945;-40
2023/04/12 00:16:38;;;;;;;;;;;;;;;;;;5111780;28;1926;-39
2023/04/12 00:19:05;;;;;;;;;;;;;;;;;;5111731;28;1806;-40
2023/04/12 00:21:32;;;;;;;;;;;;;;;;;;5111615;28;1912;-40
2023/04/12 00:24:00;;;;;;;;;;;;;;;;;;5111805;28;2178;-45
2023/04/12 00:26:27;;;;;;;;;;;;;;;;;;5111589;28;1844;-42
2023/04/12 00:28:54;;;;;;;;;;;;;;;;;;5111737;28;2121;-40
2023/04/12 00:31:22;;;;;;;;;;;;;;;;;;5111785;28;1697;-41
2023/04/12 00:33:49;;;;;;;;;;;;;;;;;;5111710;28;2118;-41
2023/04/12 00:36:16;;;;;;;;;;;;;;;;;;5111606;28;1795;-41
2023/04/12 00:38:44;;;;;;;;;;;;;;;;;;5110413;28;2009;-40
2023/04/12 00:41:13;;;;;;;;;;;;;;;;;;5115637;28;1916;-41
2023/04/12 00:43:41;;;;;;;;;;;;;;;;;;5115769;28;1732;-41
2023/04/12 00:46:10;;;;;;;;;;;;;;;;;;5115679;28;1837;-44
2023/04/12 00:48:37;;;;;;;;;;;;;;;;;;5115702;28;1700;-40
2023/04/12 00:51:05;;;;;;;;;;;;;;;;;;5114318;28;1972;-40
2023/04/12 00:53:33;;;;;;;;;;;;;;;;;;5115638;28;1836;-40
2023/04/12 00:56:02;;;;;;;;;;;;;;;;;;5122061;27;1837;-45
2023/04/12 00:58:30;;;;;;;;;;;;;;;;;;5136103;27;1732;-40
2023/04/12 01:00:59;;;;;;;;;;;;;;;;;;5134545;27;1893;-40
2023/04/12 01:03:26;;;;;;;;;;;;;;;;;;5135865;27;1707;-41
2023/04/12 01:05:54;;;;;;;;;;;;;;;;;;5135665;27;1759;-41
2023/04/12 01:08:34;;;;;;;;;;;;;;;;;;5135714;27;2096;-43
2023/04/12 01:11:10;;;;;;;;;;;;;;;;;;5136061;27;1557;-40
2023/04/12 01:13:44;;;;;;;;;;;;;;;;;;5135756;27;2000;-40
2023/04/12 01:16:26;;;;;;;;;;;;;;;;;;5134509;27;1909;-44
2023/04/12 01:18:58;;;;;;;;;;;;;;;;;;5134148;27;1901;-40
2023/04/12 01:21:44;;;;;;;;;;;;;;;;;;5134337;27;1907;-40
2023/04/12 01:24:31;;;;;;;;;;;;;;;;;;5135547;27;1935;-43
2023/04/12 01:27:01;;;;;;;;;;;;;;;;;;5133066;27;2338;-40
2023/04/12 01:29:30;;;;;;;;;;;;;;;;;;5134108;27;2347;-41
2023/04/12 01:31:58;;;;;;;;;;;;;;;;;;5133828;27;1972;-41
2023/04/12 01:34:27;;;;;;;;;;;;;;;;;;5123702;27;1415;-41
2023/04/12 01:36:56;;;;;;;;;;;;;;;;;;5114747;28;1659;-40
2023/04/12 01:39:26;;;;;;;;;;;;;;;;;;5114501;28;2076;-40
2023/04/12 01:41:53;;;;;;;;;;;;;;;;;;5114390;28;1906;-40
2023/04/12 01:44:21;;;;;;;;;;;;;;;;;;5114485;28;1955;-40
2023/04/12 01:46:48;;;;;;;;;;;;;;;;;;5114475;28;2123;-42
2023/04/12 01:49:16;;;;;;;;;;;;;;;;;;5114977;28;2139;-42
2023/04/12 01:51:50;;;;;;;;;;;;;;;;;;5114029;28;1655;-40
2023/04/12 01:54:27;;;;;;;;;;;;;;;;;;5114136;28;1736;-40
2023/04/12 01:56:58;;;;;;;;;;;;;;;;;;5128502;27;2155;-41
2023/04/12 01:59:27;;;;;;;;;;;;;;;;;;5133490;27;2140;-42
2023/04/12 02:01:54;;;;;;;;;;;;;;;;;;5134800;27;1907;-41
2023/04/12 02:04:24;;;;;;;;;;;;;;;;;;5126930;27;1712;-40
2023/04/12 02:06:54;;;;;;;;;;;;;;;;;;5112653;28;2141;-41
2023/04/12 02:09:21;;;;;;;;;;;;;;;;;;5114140;28;1880;-41
2023/04/12 02:11:49;;;;;;;;;;;;;;;;;;5113034;28;2024;-40
2023/04/12 02:14:16;;;;;;;;;;;;;;;;;;5113084;28;1643;-41
2023/04/12 02:16:44;;;;;;;;;;;;;;;;;;5113980;28;1626;-40
2023/04/12 02:19:11;;;;;;;;;;;;;;;;;;5114039;28;2087;-41
2023/04/12 02:21:41;;;;;;;;;;;;;;;;;;5114012;28;2083;-40
2023/04/12 02:24:10;;;;;;;;;;;;;;;;;;5112454;28;1510;-40
2023/04/12 02:26:37;;;;;;;;;;;;;;;;;;5124927;27;1701;-41
2023/04/12 02:29:08;;;;;;;;;;;;;;;;;;5132994;27;1677;-39
2023/04/12 02:31:37;;;;;;;;;;;;;;;;;;5132789;27;1687;-40
2023/04/12 02:34:09;;;;;;;;;;;;;;;;;;5132732;27;1699;-41
2023/04/12 02:36:40;;;;;;;;;;;;;;;;;;5132653;27;2157;-42
2023/04/12 02:39:07;;;;;;;;;;;;;;;;;;5133964;27;2408;-40
2023/04/12 02:41:35;;;;;;;;;;;;;;;;;;5134008;27;2094;-42
2023/04/12 02:44:07;;;;;;;;;;;;;;;;;;5132376;27;1723;-40
2023/04/12 02:46:38;;;;;;;;;;;;;;;;;;5132312;27;2055;-41
2023/04/12 02:49:05;;;;;;;;;;;;;;;;;;5132539;27;1942;-41
2023/04/12 02:51:38;;;;;;;;;;;;;;;;;;5132442;27;1565;-40
2023/04/12 02:54:06;;;;;;;;;;;;;;;;;;5132462;27;1651;-43
2023/04/12 02:56:52;;;;;;;;;;;;;;;;;;5128942;27;2027;-41
2023/04/12 02:59:35;;;;;;;;;;;;;;;;;;5111768;28;2308;-41
2023/04/12 03:02:10;;;;;;;;;;;;;;;;;;5125951;27;1978;-41
2023/04/12 03:04:38;;;;;;;;;;;;;;;;;;5133588;27;2242;-41
2023/04/12 03:07:18;;;;;;;;;;;;;;;;;;5132137;27;1851;-41
2023/04/12 03:09:50;;;;;;;;;;;;;;;;;;5133792;27;1685;-40
2023/04/12 03:12:19;;;;;;;;;;;;;;;;;;5133448;27;1829;-43
2023/04/12 03:15:22;;;;;;;;;;;;;;;;;;5123107;27;1809;-41
2023/04/12 03:17:51;;;;;;;;;;;;;;;;;;5127142;27;2205;-41
2023/04/12 03:20:27;;;;;;;;;;;;;;;;;;5111266;28;2082;-41
2023/04/12 03:23:00;;;;;;;;;;;;;;;;;;5111518;28;1680;-42
2023/04/12 03:25:30;;;;;;;;;;;;;;;;;;5111080;27;2062;-41
2023/04/12 03:28:11;;;;;;;;;;;;;;;;;;5111104;28;1621;-41
2023/04/12 03:30:50;;;;;;;;;;;;;;;;;;5111613;28;1743;-41
2023/04/12 03:33:21;;;;;;;;;;;;;;;;;;5111242;28;1701;-41
2023/04/12 03:35:50;;;;;;;;;;;;;;;;;;5110991;28;2239;-41
2023/04/12 03:38:18;;;;;;;;;;;;;;;;;;5112309;28;1779;-41
2023/04/12 03:40:46;;;;;;;;;;;;;;;;;;5110920;28;2380;-46
2023/04/12 03:43:14;;;;;;;;;;;;;;;;;;5111067;28;2299;-59
2023/04/12 03:45:42;;;;;;;;;;;;;;;;;;5111012;28;1822;-41
2023/04/12 03:48:10;;;;;;;;;;;;;;;;;;5111864;28;1970;-43
2023/04/12 03:50:46;;;;;;;;;;;;;;;;;;5110809;28;1989;-41
2023/04/12 03:53:19;;;;;;;;;;;;;;;;;;5112087;28;1901;-41
2023/04/12 03:55:48;;;;;;;;;;;;;;;;;;5112276;27;1620;-44
2023/04/12 03:58:17;;;;;;;;;;;;;;;;;;5110388;28;2366;-41
2023/04/12 04:00:46;;;;;;;;;;;;;;;;;;5110633;28;2369;-43
2023/04/12 04:03:16;;;;;;;;;;;;;;;;;;5110187;28;1937;-43
2023/04/12 04:05:54;;;;;;;;;;;;;;;;;;5110566;28;1994;-43
2023/04/12 04:08:22;;;;;;;;;;;;;;;;;;5111574;28;2012;-44
2023/04/12 04:10:51;;;;;;;;;;;;;;;;;;5110645;28;2045;-41
2023/04/12 04:13:21;;;;;;;;;;;;;;;;;;5110201;28;1873;-48
2023/04/12 04:16:03;;;;;;;;;;;;;;;;;;5110563;28;1946;-42
2023/04/12 04:18:31;;;;;;;;;;;;;;;;;;5110270;28;1849;-42
2023/04/12 04:21:00;;;;;;;;;;;;;;;;;;5110193;28;2013;-42
2023/04/12 04:23:44;;;;;;;;;;;;;;;;;;5113201;27;1875;-42
2023/04/12 04:26:12;;;;;;;;;;;;;;;;;;5130682;27;2091;-42
2023/04/12 04:28:54;;;;;;;;;;;;;;;;;;5132069;27;1834;-42
2023/04/12 04:31:33;;;;;;;;;;;;;;;;;;5130791;28;1852;-39
2023/04/12 04:34:06;;;;;;;;;;;;;;;;;;5130525;28;2215;-51
2023/04/12 04:36:40;;;;;;;;;;;;;;;;;;5114553;28;2275;-42
2023/04/12 04:39:08;;;;;;;;;;;;;;;;;;5128215;28;1775;-44
2023/04/12 04:41:40;;;;;;;;;;;;;;;;;;5111546;28;1975;-42
2023/04/12 04:44:34;;;;;;;;;;;;;;;;;;5110078;28;1715;-42
2023/04/12 04:47:07;;;;;;;;;;;;;;;;;;5109911;28;1680;-42
2023/04/12 04:49:35;;;;;;;;;;;;;;;;;;5110041;28;2181;-43
2023/04/12 04:52:12;;;;;;;;;;;;;;;;;;5109981;28;2537;-53
2023/04/12 04:54:40;;;;;;;;;;;;;;;;;;5109993;28;1852;-42
2023/04/12 04:57:10;;;;;;;;;;;;;;;;;;5122708;28;2390;-43
2023/04/12 04:59:39;;;;;;;;;;;;;;;;;;5111219;28;2169;-42
2023/04/12 05:02:15;;;;;;;;;;;;;;;;;;5111268;28;2080;-41
2023/04/12 05:04:44;;;;;;;;;;;;;;;;;;5109935;28;1799;-41
2023/04/12 05:07:16;;;;;;;;;;;;;;;;;;5109862;28;2028;-42
2023/04/12 05:09:45;;;;;;;;;;;;;;;;;;5109802;28;2012;-42
2023/04/12 05:12:13;;;;;;;;;;;;;;;;;;5109786;28;1646;-42
2023/04/12 05:14:48;;;;;;;;;;;;;;;;;;5109892;28;2060;-43
2023/04/12 05:17:18;;;;;;;;;;;;;;;;;;5110057;28;2000;-43
2023/04/12 05:19:48;;;;;;;;;;;;;;;;;;5111164;28;1938;-43
2023/04/12 05:22:19;;;;;;;;;;;;;;;;;;5109111;28;1969;-43
2023/04/12 05:24:49;;;;;;;;;;;;;;;;;;5111084;28;1420;-42
2023/04/12 05:27:17;;;;;;;;;;;;;;;;;;5113577;28;1947;-43
2023/04/12 05:29:46;;;;;;;;;;;;;;;;;;5113433;28;1643;-43
2023/04/12 05:32:17;;;;;;;;;;;;;;;;;;5113120;28;1736;-43
2023/04/12 05:34:45;;;;;;;;;;;;;;;;;;5112843;28;2060;-56
2023/04/12 05:37:13;;;;;;;;;;;;;;;;;;5113245;28;2307;-55
2023/04/12 05:39:41;;;;;;;;;;;;;;;;;;5113172;28;1942;-42
2023/04/12 05:42:09;;;;;;;;;;;;;;;;;;5114233;28;1973;-44
2023/04/12 05:44:37;;;;;;;;;;;;;;;;;;5113983;28;1564;-43
2023/04/12 05:47:09;;;;;;;;;;;;;;;;;;5112148;28;1717;-42
2023/04/12 05:49:36;;;;;;;;;;;;;;;;;;5113479;28;1796;-43
2023/04/12 05:52:07;;;;;;;;;;;;;;;;;;5112199;28;1614;-43
2023/04/12 05:54:35;;;;;;;;;;;;;;;;;;5113802;28;2124;-43
2023/04/12 05:57:03;;;;;;;;;;;;;;;;;;5112425;28;1891;-45
2023/04/12 05:59:31;;;;;;;;;;;;;;;;;;5113206;28;1788;-42
2023/04/12 06:02:00;;;;;;;;;;;;;;;;;;5112572;28;2080;-43
2023/04/12 06:04:30;;;;;;;;;;;;;;;;;;5112351;28;2409;-47
2023/04/12 06:07:16;;;;;;;;;;;;;;;;;;5112591;28;2011;-52
2023/04/12 06:09:45;;;;;;;;;;;;;;;;;;5114109;28;1927;-43
2023/04/12 06:12:13;;;;;;;;;;;;;;;;;;5112309;28;1878;-43
2023/04/12 06:14:40;;;;;;;;;;;;;;;;;;5114018;28;2098;-42
2023/04/12 06:17:10;;;;;;;;;;;;;;;;;;5112596;28;2146;-42
2023/04/12 06:19:38;;;;;;;;;;;;;;;;;;5112371;28;1589;-42
2023/04/12 06:22:06;;;;;;;;;;;;;;;;;;5114087;28;2234;-43
2023/04/12 06:24:34;;;;;;;;;;;;;;;;;;5112509;28;2141;-43
2023/04/12 06:27:02;;;;;;;;;;;;;;;;;;5095870;28;1844;-43
2023/04/12 06:29:30;;;;;;;;;;;;;;;;;;5112203;28;2302;-43
2023/04/12 06:31:58;;;;;;;;;;;;;;;;;;5113323;28;1878;-42
2023/04/12 06:34:25;;;;;;;;;;;;;;;;;;5112303;28;1697;-44
2023/04/12 06:36:57;;;;;;;;;;;;;;;;;;5111170;28;1934;-43
2023/04/12 06:39:24;;;;;;;;;;;;;;;;;;5113401;28;1389;-44
2023/04/12 06:41:51;;;;;;;;;;;;;;;;;;5113344;28;1975;-43
2023/04/12 06:44:19;;;;;;;;;;;;;;;;;;5112196;28;2006;-43
2023/04/12 06:46:46;;;;;;;;;;;;;;;;;;5113418;28;1725;-44
2023/04/12 06:49:13;;;;;;;;;;;;;;;;;;5113041;27;2214;-44
2023/04/12 06:51:40;;;;;;;;;;;;;;;;;;5113099;28;1632;-48
2023/04/12 06:54:08;;;;;;;;;;;;;;;;;;5113202;28;1914;-50
2023/04/12 06:56:38;;;;;;;;;;;;;;;;;;5113424;28;1581;-45
2023/04/12 06:59:05;;;;;;;;;;;;;;;;;;5113549;28;1951;-44
2023/04/12 07:01:32;;;;;;;;;;;;;;;;;;5112895;28;2005;-43
2023/04/12 07:04:00;;;;;;;;;;;;;;;;;;5112992;28;1927;-42
2023/04/12 07:06:27;;;;;;;;;;;;;;;;;;5112943;28;2228;-43
2023/04/12 07:08:54;;;;;;;;;;;;;;;;;;5113052;28;1981;-43
2023/04/12 07:11:22;;;;;;;;;;;;;;;;;;5112706;28;1979;-43
2023/04/12 07:13:50;;;;;;;;;;;;;;;;;;5112949;28;1898;-43
2023/04/12 07:16:20;;;;;;;;;;;;;;;;;;5112744;28;1592;-44
2023/04/12 07:18:47;;;;;;;;;;;;;;;;;;5112979;28;1581;-44
2023/04/12 07:21:16;;;;;;;;;;;;;;;;;;5111340;28;2254;-42
2023/04/12 07:23:45;;;;;;;;;;;;;;;;;;5112711;28;1797;-46
2023/04/12 07:26:12;;;;;;;;;;;;;;;;;;5112347;28;2173;-42
2023/04/12 07:28:39;;;;;;;;;;;;;;;;;;5112705;28;1343;-44
2023/04/12 07:31:07;;;;;;;;;;;;;;;;;;5112570;28;2063;-44
2023/04/12 07:33:36;;;;;;;;;;;;;;;;;;5112719;28;2089;-56
2023/04/12 07:36:05;;;;;;;;;;;;;;;;;;5112119;28;2082;-42
2023/04/12 07:38:32;;;;;;;;;;;;;;;;;;5112386;28;1776;-44
2023/04/12 07:40:59;;;;;;;;;;;;;;;;;;5112233;28;1647;-60
2023/04/12 07:43:26;;;;;;;;;;;;;;;;;;5112113;28;1954;-58
2023/04/12 07:45:55;;;;;;;;;;;;;;;;;;5110774;28;1893;-44
2023/04/12 07:48:22;;;;;;;;;;;;;;;;;;5111264;28;1780;-45
2023/04/12 07:50:50;;;;;;;;;;;;;;;;;;5112281;28;1871;-45
2023/04/12 07:53:18;;;;;;;;;;;;;;;;;;5111658;28;2107;-43
2023/04/12 07:55:46;;;;;;;;;;;;;;;;;;5111840;28;1460;-43
2023/04/12 07:58:14;;;;;;;;;;;;;;;;;;5111827;28;1496;-50
2023/04/12 08:00:42;;;;;;;;;;;;;;;;;;5111987;28;2034;-58
2023/04/12 08:03:10;;;;;;;;;;;;;;;;;;5111981;28;2093;-61
2023/04/12 08:05:38;;;;;;;;;;;;;;;;;;5111469;28;2141;-54
2023/04/12 08:08:05;;;;;;;;;;;;;;;;;;5112060;28;2087;-61
2023/04/12 08:10:33;;;;;;;;;;;;;;;;;;5111926;28;2181;-59
2023/04/12 08:13:00;;;;;;;;;;;;;;;;;;5111612;28;2290;-52
2023/04/12 08:15:28;;;;;;;;;;;;;;;;;;5111937;28;1910;-43
2023/04/12 08:17:56;;;;;;;;;;;;;;;;;;5111582;28;2352;-43
2023/04/12 08:20:24;;;;;;;;;;;;;;;;;;5111333;28;1976;-43
2023/04/12 08:22:53;;;;;;;;;;;;;;;;;;5111191;28;1973;-49
2023/04/12 08:25:21;;;;;;;;;;;;;;;;;;5111496;28;2136;-43
2023/04/12 08:27:48;;;;;;;;;;;;;;;;;;5111374;28;2068;-43
2023/04/12 08:30:16;;;;;;;;;;;;;;;;;;5111599;28;2069;-43
2023/04/12 08:32:44;;;;;;;;;;;;;;;;;;5111678;28;1849;-43
2023/04/12 08:35:11;;;;;;;;;;;;;;;;;;5111666;28;1965;-57
2023/04/12 08:37:38;;;;;;;;;;;;;;;;;;5111464;28;2001;-51
2023/04/12 08:40:06;;;;;;;;;;;;;;;;;;5111817;28;1903;-45
2023/04/12 08:42:35;;;;;;;;;;;;;;;;;;5111356;28;2202;-43
2023/04/12 08:45:04;;;;;;;;;;;;;;;;;;5111636;28;1589;-58
2023/04/12 08:47:33;;;;;;;;;;;;;;;;;;5111059;28;1975;-42
2023/04/12 08:50:01;;;;;;;;;;;;;;;;;;5111544;28;1984;-43
2023/04/12 08:52:31;;;;;;;;;;;;;;;;;;5111339;28;2056;-46
2023/04/12 08:55:01;;;;;;;;;;;;;;;;;;5111103;28;1827;-43
2023/04/12 08:57:29;;;;;;;;;;;;;;;;;;5130015;28;1742;-42
2023/04/12 08:59:58;;;;;;;;;;;;;;;;;;5131778;27;1987;-43
2023/04/12 09:02:26;;;;;;;;;;;;;;;;;;5135938;27;2072;-43
2023/04/12 09:04:54;;;;;;;;;;;;;;;;;;5135726;27;2193;-46
2023/04/12 09:07:22;;;;;;;;;;;;;;;;;;5135633;27;1720;-43
2023/04/12 09:09:49;;;;;;;;;;;;;;;;;;5135734;27;2058;-43
2023/04/12 09:12:19;;;;;;;;;;;;;;;;;;5136061;27;1837;-41
2023/04/12 09:14:46;;;;;;;;;;;;;;;;;;5135818;27;1657;-43
2023/04/12 09:17:23;;;;;;;;;;;;;;;;;;5135919;27;1454;-42
2023/04/12 09:19:51;;;;;;;;;;;;;;;;;;5135379;27;1536;-42
2023/04/12 09:22:18;;;;;;;;;;;;;;;;;;5135391;27;2082;-43
2023/04/12 09:24:47;;;;;;;;;;;;;;;;;;5135604;27;1697;-43
2023/04/12 09:27:15;;;;;;;;;;;;;;;;;;5135412;27;1938;-43
2023/04/12 09:29:44;;;;;;;;;;;;;;;;;;5135896;27;2197;-44
2023/04/12 09:32:11;;;;;;;;;;;;;;;;;;5135265;27;1802;-41
2023/04/12 09:34:53;;;;;;;;;;;;;;;;;;5135014;27;1669;-41
2023/04/12 09:37:20;;;;;;;;;;;;;;;;;;5135433;27;1695;-59
2023/04/12 09:39:57;;;;;;;;;;;;;;;;;;5135346;27;2063;-41
2023/04/12 09:42:24;;;;;;;;;;;;;;;;;;5134994;27;1902;-47
2023/04/12 09:45:00;;;;;;;;;;;;;;;;;;5134693;27;1707;-50
2023/04/12 09:47:38;;;;;;;;;;;;;;;;;;5135051;27;1796;-48
2023/04/12 09:50:07;;;;;;;;;;;;;;;;;;5134760;27;1784;-48
2023/04/12 09:52:35;;;;;;;;;;;;;;;;;;5134881;27;1940;-45
2023/04/12 09:55:02;;;;;;;;;;;;;;;;;;5134680;27;2145;-46
2023/04/12 09:57:30;;;;;;;;;;;;;;;;;;5115431;27;1498;-58
2023/04/12 09:59:58;;;;;;;;;;;;;;;;;;5114063;28;2179;-42
2023/04/12 10:02:27;;;;;;;;;;;;;;;;;;5114119;28;2006;-41
2023/04/12 10:04:54;;;;;;;;;;;;;;;;;;5113796;28;1915;-49
2023/04/12 10:07:22;;;;;;;;;;;;;;;;;;5114211;28;1665;-40
2023/04/12 10:09:49;;;;;;;;;;;;;;;;;;5114027;28;1994;-42
2023/04/12 10:12:18;;;;;;;;;;;;;;;;;;5113736;28;2022;-42
2023/04/12 10:14:46;;;;;;;;;;;;;;;;;;5113999;28;1989;-43
2023/04/12 10:17:13;;;;;;;;;;;;;;;;;;5114002;28;1999;-45
2023/04/12 10:19:41;;;;;;;;;;;;;;;;;;5113137;28;1794;-42
2023/04/12 10:22:09;;;;;;;;;;;;;;;;;;5113944;28;1909;-41
2023/04/12 10:24:37;;;;;;;;;;;;;;;;;;5113753;28;1655;-42
2023/04/12 10:27:04;;;;;;;;;;;;;;;;;;5113920;28;2009;-41
2023/04/12 10:29:33;;;;;;;;;;;;;;;;;;5113721;28;2240;-42
2023/04/12 10:32:20;;;;;;;;;;;;;;;;;;5113547;28;1487;-43
2023/04/12 10:35:00;;;;;;;;;;;;;;;;;;5113868;28;1771;-42
2023/04/12 10:37:46;;;;;;;;;;;;;;;;;;5113554;28;1734;-41
2023/04/12 10:40:18;;;;;;;;;;;;;;;;;;5113377;28;1861;-43
2023/04/12 10:42:45;;;;;;;;;;;;;;;;;;5113555;28;2003;-41
2023/04/12 10:45:24;;;;;;;;;;;;;;;;;;5113292;28;1716;-42
2023/04/12 10:47:55;;;;;;;;;;;;;;;;;;5113521;28;2145;-42
2023/04/12 10:50:33;;;;;;;;;;;;;;;;;;5113539;28;2064;-42
2023/04/12 10:53:12;;;;;;;;;;;;;;;;;;5113065;28;2104;-41
2023/04/12 10:55:40;;;;;;;;;;;;;;;;;;5113130;28;1912;-60
2023/04/12 10:58:30;;;;;;;;;;;;;;;;;;5111773;28;1780;-43
2023/04/12 11:00:58;;;;;;;;;;;;;;;;;;5112878;28;1840;-50
2023/04/12 11:03:26;;;;;;;;;;;;;;;;;;5113051;28;2015;-42
2023/04/12 11:05:55;;;;;;;;;;;;;;;;;;5113313;28;1725;-42
2023/04/12 11:08:49;;;;;;;;;;;;;;;;;;5088734;28;1906;-44
2023/04/12 11:11:24;;;;;;;;;;;;;;;;;;5112952;28;2125;-42
2023/04/12 11:13:53;;;;;;;;;;;;;;;;;;5113053;28;2153;-43
2023/04/12 11:16:20;;;;;;;;;;;;;;;;;;5112894;28;2185;-47
2023/04/12 11:18:48;;;;;;;;;;;;;;;;;;5112524;28;1599;-51
2023/04/12 11:21:15;;;;;;;;;;;;;;;;;;5112515;28;1623;-41
2023/04/12 11:23:43;;;;;;;;;;;;;;;;;;5112154;28;2048;-42
2023/04/12 11:26:10;;;;;;;;;;;;;;;;;;5112718;28;1873;-42
2023/04/12 11:28:37;;;;;;;;;;;;;;;;;;5112496;28;2115;-41
2023/04/12 11:31:05;;;;;;;;;;;;;;;;;;5112546;28;2065;-42
2023/04/12 11:33:33;;;;;;;;;;;;;;;;;;5112281;28;2134;-41
2023/04/12 11:36:08;;;;;;;;;;;;;;;;;;5112729;28;1406;-61
2023/04/12 11:38:36;;;;;;;;;;;;;;;;;;5112645;28;1832;-48
2023/04/12 11:41:07;;;;;;;;;;;;;;;;;;5112342;28;1945;-44
2023/04/12 11:43:37;;;;;;;;;;;;;;;;;;5112071;28;2233;-49
2023/04/12 11:46:05;;;;;;;;;;;;;;;;;;5112181;28;1943;-41
2023/04/12 11:48:32;;;;;;;;;;;;;;;;;;5111568;28;1485;-49
2023/04/12 11:50:59;;;;;;;;;;;;;;;;;;5111306;28;1960;-42
2023/04/12 11:53:37;;;;;;;;;;;;;;;;;;5111090;28;1744;-41
2023/04/12 11:56:04;;;;;;;;;;;;;;;;;;5111286;28;2655;-41
2023/04/12 11:58:31;;;;;;;;;;;;;;;;;;5111316;28;1526;-42
2023/04/12 12:00:59;;;;;;;;;;;;;;;;;;5111001;28;1607;-42
2023/04/12 12:03:26;;;;;;;;;;;;;;;;;;5111504;28;2711;-42
2023/04/12 12:05:54;;;;;;;;;;;;;;;;;;5111423;28;1647;-45
2023/04/12 12:08:24;;;;;;;;;;;;;;;;;;5111226;28;2109;-44
2023/04/12 12:10:52;;;;;;;;;;;;;;;;;;5111063;28;1903;-61
2023/04/12 12:13:43;;;;;;;;;;;;;;;;;;5111185;28;2017;-55
2023/04/12 12:16:11;;;;;;;;;;;;;;;;;;5110973;28;2096;-57
2023/04/12 12:18:40;;;;;;;;;;;;;;;;;;5111503;28;2226;-50
2023/04/12 12:21:08;;;;;;;;;;;;;;;;;;5110764;28;1677;-43
2023/04/12 12:23:35;;;;;;;;;;;;;;;;;;5110710;28;2134;-41
2023/04/12 12:26:04;;;;;;;;;;;;;;;;;;5124121;28;1472;-43
2023/04/12 12:28:47;;;;;;;;;;;;;;;;;;5131053;28;1934;-42
2023/04/12 12:31:19;;;;;;;;;;;;;;;;;;5131390;27;1573;-43
2023/04/12 12:33:46;;;;;;;;;;;;;;;;;;5131132;28;1784;-42
2023/04/12 12:36:17;;;;;;;;;;;;;;;;;;5130322;27;1947;-42
2023/04/12 12:38:44;;;;;;;;;;;;;;;;;;5131173;28;1850;-49
2023/04/12 12:41:16;;;;;;;;;;;;;;;;;;5131261;27;1999;-42
2023/04/12 12:43:44;;;;;;;;;;;;;;;;;;5129644;28;2042;-41
2023/04/12 12:46:11;;;;;;;;;;;;;;;;;;5130883;28;1878;-44
2023/04/12 12:48:41;;;;;;;;;;;;;;;;;;5131712;27;2022;-41
2023/04/12 12:51:09;;;;;;;;;;;;;;;;;;5131926;28;1927;-41
2023/04/12 12:53:37;;;;;;;;;;;;;;;;;;5131831;27;1907;-41
2023/04/12 12:56:04;;;;;;;;;;;;;;;;;;5124316;27;2498;-58
2023/04/12 12:58:31;;;;;;;;;;;;;;;;;;5111907;28;2244;-42
2023/04/12 13:00:59;;;;;;;;;;;;;;;;;;5111144;28;1956;-41
2023/04/12 13:03:26;;;;;;;;;;;;;;;;;;5111299;28;1901;-41
2023/04/12 13:05:55;;;;;;;;;;;;;;;;;;5110997;28;1572;-46
2023/04/12 13:08:23;;;;;;;;;;;;;;;;;;5111312;28;1809;-41
2023/04/12 13:10:51;;;;;;;;;;;;;;;;;;5111071;28;1852;-40
2023/04/12 13:13:18;;;;;;;;;;;;;;;;;;5111261;28;1562;-45
2023/04/12 13:15:46;;;;;;;;;;;;;;;;;;5111210;28;1996;-42
2023/04/12 13:18:16;;;;;;;;;;;;;;;;;;5111340;28;2183;-43
2023/04/12 13:20:44;;;;;;;;;;;;;;;;;;5110982;28;1941;-50
2023/04/12 13:23:12;;;;;;;;;;;;;;;;;;5111250;28;1973;-53
2023/04/12 13:25:41;;;;;;;;;;;;;;;;;;5111031;28;1493;-41
2023/04/12 13:28:09;;;;;;;;;;;;;;;;;;5122824;28;2190;-39
2023/04/12 13:30:36;;;;;;;;;;;;;;;;;;5131650;28;1749;-42
2023/04/12 13:33:04;;;;;;;;;;;;;;;;;;5131691;27;2073;-40
2023/04/12 13:35:31;;;;;;;;;;;;;;;;;;5131978;28;1981;-59
2023/04/12 13:37:58;;;;;;;;;;;;;;;;;;5131652;27;1392;-42
2023/04/12 13:40:26;;;;;;;;;;;;;;;;;;5131457;27;1746;-45
2023/04/12 13:42:53;;;;;;;;;;;;;;;;;;5131408;27;2150;-49
2023/04/12 13:45:20;;;;;;;;;;;;;;;;;;5131465;27;2038;-42
2023/04/12 13:47:47;;;;;;;;;;;;;;;;;;5134349;27;2167;-41
2023/04/12 13:50:14;;;;;;;;;;;;;;;;;;5134986;27;1638;-43
2023/04/12 13:52:41;;;;;;;;;;;;;;;;;;5134918;27;1901;-47
2023/04/12 13:55:09;;;;;;;;;;;;;;;;;;5134868;27;1649;-42
2023/04/12 13:57:36;;;;;;;;;;;;;;;;;;5114867;27;1508;-42
2023/04/12 14:00:03;;;;;;;;;;;;;;;;;;5114501;28;2112;-60
2023/04/12 14:02:30;;;;;;;;;;;;;;;;;;5114955;28;2110;-46
2023/04/12 14:04:58;;;;;;;;;;;;;;;;;;5113917;28;2014;-48
2023/04/12 14:07:28;;;;;;;;;;;;;;;;;;5114066;28;1961;-56
2023/04/12 14:09:56;;;;;;;;;;;;;;;;;;5113987;28;1386;-41
2023/04/12 14:12:23;;;;;;;;;;;;;;;;;;5113933;28;1948;-53
2023/04/12 14:14:51;;;;;;;;;;;;;;;;;;5113877;28;1473;-45
2023/04/12 14:17:18;;;;;;;;;;;;;;;;;;5113032;28;2004;-51
2023/04/12 14:19:45;;;;;;;;;;;;;;;;;;5114020;28;1838;-51
2023/04/12 14:22:12;;;;;;;;;;;;;;;;;;5113945;28;1773;-50
2023/04/12 14:24:40;;;;;;;;;;;;;;;;;;5113781;28;1902;-49
2023/04/12 14:27:07;;;;;;;;;;;;;;;;;;5114024;28;2084;-45
2023/04/12 14:29:35;;;;;;;;;;;;;;;;;;5113817;28;2001;-42
2023/04/12 14:32:02;;;;;;;;;;;;;;;;;;5113754;28;2091;-45
2023/04/12 14:34:30;;;;;;;;;;;;;;;;;;5113463;28;1579;-41
2023/04/12 14:36:59;;;;;;;;;;;;;;;;;;5113457;28;1792;-47
2023/04/12 14:39:26;;;;;;;;;;;;;;;;;;5113652;28;2172;-45
2023/04/12 14:41:53;;;;;;;;;;;;;;;;;;5113524;28;1913;-51
2023/04/12 14:44:21;;;;;;;;;;;;;;;;;;5113545;28;2067;-43
2023/04/12 14:46:51;;;;;;;;;;;;;;;;;;5113135;28;1763;-44
2023/04/12 14:49:18;;;;;;;;;;;;;;;;;;5113410;28;2081;-48
2023/04/12 14:51:46;;;;;;;;;;;;;;;;;;5113591;28;1812;-42
2023/04/12 14:54:13;;;;;;;;;;;;;;;;;;5112990;28;1804;-44
2023/04/12 14:56:40;;;;;;;;;;;;;;;;;;5113056;28;2124;-41
2023/04/12 14:59:17;;;;;;;;;;;;;;;;;;5112294;28;1883;-44
2023/04/12 15:01:44;;;;;;;;;;;;;;;;;;5113001;28;1902;-48
2023/04/12 15:04:11;;;;;;;;;;;;;;;;;;5112982;28;1901;-43
2023/04/12 15:06:41;;;;;;;;;;;;;;;;;;5113448;28;2071;-44
2023/04/12 15:09:08;;;;;;;;;;;;;;;;;;5113165;28;1996;-48
2023/04/12 15:11:37;;;;;;;;;;;;;;;;;;5113433;28;2150;-43
2023/04/12 15:14:06;;;;;;;;;;;;;;;;;;5112617;28;2076;-42
2023/04/12 15:16:35;;;;;;;;;;;;;;;;;;5113177;28;1764;-42
2023/04/12 15:19:02;;;;;;;;;;;;;;;;;;5112747;28;1818;-45
2023/04/12 15:21:37;;;;;;;;;;;;;;;;;;5113032;28;2085;-42
2023/04/12 15:24:05;;;;;;;;;;;;;;;;;;5112304;28;1970;-46
2023/04/12 15:26:33;;;;;;;;;;;;;;;;;;5112536;28;1946;-43
2023/04/12 15:29:00;;;;;;;;;;;;;;;;;;5112672;28;1679;-43
2023/04/12 15:31:27;;;;;;;;;;;;;;;;;;5112447;28;1931;-47
2023/04/12 15:33:56;;;;;;;;;;;;;;;;;;5112502;28;2090;-46
2023/04/12 15:36:32;;;;;;;;;;;;;;;;;;5112721;28;1817;-49
2023/04/12 15:39:00;;;;;;;;;;;;;;;;;;5112261;28;1950;-47
2023/04/12 15:41:32;;;;;;;;;;;;;;;;;;5112519;28;1637;-41
2023/04/12 15:43:59;;;;;;;;;;;;;;;;;;5112107;28;1929;-43
2023/04/12 15:46:26;;;;;;;;;;;;;;;;;;5112291;28;1783;-42
2023/04/12 15:48:59;;;;;;;;;;;;;;;;;;5112349;28;1508;-40
2023/04/12 15:51:26;;;;;;;;;;;;;;;;;;5111855;28;1772;-42
2023/04/12 15:53:54;;;;;;;;;;;;;;;;;;5112048;28;1658;-41
2023/04/12 15:56:24;;;;;;;;;;;;;;;;;;5121309;27;1934;-42
2023/04/12 15:58:52;;;;;;;;;;;;;;;;;;5132506;27;1743;-44
2023/04/12 16:01:19;;;;;;;;;;;;;;;;;;5132698;27;1493;-50
2023/04/12 16:03:47;;;;;;;;;;;;;;;;;;5132166;27;1983;-42
2023/04/12 16:06:18;;;;;;;;;;;;;;;;;;5132453;27;1859;-52
2023/04/12 16:08:46;;;;;;;;;;;;;;;;;;5132399;27;2278;-43
2023/04/12 16:11:15;;;;;;;;;;;;;;;;;;5132385;27;1942;-42
2023/04/12 16:13:44;;;;;;;;;;;;;;;;;;5131253;27;2142;-43
2023/04/12 16:16:12;;;;;;;;;;;;;;;;;;5132515;27;2064;-42
2023/04/12 16:18:40;;;;;;;;;;;;;;;;;;5132374;27;1945;-42
2023/04/12 16:21:08;;;;;;;;;;;;;;;;;;5132196;27;1801;-54
2023/04/12 16:23:36;;;;;;;;;;;;;;;;;;5132190;27;1726;-41
2023/04/12 16:26:04;;;;;;;;;;;;;;;;;;5132291;27;1977;-41
2023/04/12 16:28:32;;;;;;;;;;;;;;;;;;5132173;27;2327;-44
2023/04/12 16:30:59;;;;;;;;;;;;;;;;;;5132255;27;1879;-41
2023/04/12 16:33:26;;;;;;;;;;;;;;;;;;5131927;27;2072;-44
2023/04/12 16:35:54;;;;;;;;;;;;;;;;;;5132379;27;1790;-40
2023/04/12 16:38:21;;;;;;;;;;;;;;;;;;5132041;27;2266;-41
2023/04/12 16:40:48;;;;;;;;;;;;;;;;;;5132126;27;2078;-43
2023/04/12 16:43:15;;;;;;;;;;;;;;;;;;5132392;27;1770;-41
2023/04/12 16:45:45;;;;;;;;;;;;;;;;;;5131852;28;2151;-41
2023/04/12 16:48:13;;;;;;;;;;;;;;;;;;5131967;27;2220;-48
2023/04/12 16:50:46;;;;;;;;;;;;;;;;;;5131926;27;1851;-41
2023/04/12 16:53:15;;;;;;;;;;;;;;;;;;5131932;28;2070;-44
2023/04/12 16:55:43;;;;;;;;;;;;;;;;;;5128125;27;1830;-42
2023/04/12 16:58:10;;;;;;;;;;;;;;;;;;5110175;28;1802;-41
2023/04/12 17:00:37;;;;;;;;;;;;;;;;;;5111393;28;2023;-46
2023/04/12 17:03:08;;;;;;;;;;;;;;;;;;5110253;28;1619;-41
2023/04/12 17:05:35;;;;;;;;;;;;;;;;;;5110653;28;2085;-41
2023/04/12 17:08:04;;;;;;;;;;;;;;;;;;5111047;28;2002;-41
2023/04/12 17:10:32;;;;;;;;;;;;;;;;;;5111037;28;1603;-42
2023/04/12 17:13:00;;;;;;;;;;;;;;;;;;5111022;28;2029;-40
2023/04/12 17:15:31;;;;;;;;;;;;;;;;;;5109377;28;1840;-41
2023/04/12 17:18:00;;;;;;;;;;;;;;;;;;5111066;28;1781;-41
2023/04/12 17:20:28;;;;;;;;;;;;;;;;;;5111290;28;2162;-40